createdAt,value
2023-02-12T00:01:12.561Z,100.00
2023-02-12T00:03:39.593Z,100.00
2023-02-12T00:06:07.736Z,100.00
2023-02-12T00:08:34.992Z,100.00
2023-02-12T00:11:08.428Z,100.00
2023-02-12T00:13:34.864Z,100.00
2023-02-12T00:16:05.178Z,100.00
2023-02-12T00:18:31.577Z,100.00
2023-02-12T00:20:59.797Z,100.00
2023-02-12T00:23:26.417Z,100.00
2023-02-12T00:25:53.029Z,100.00
2023-02-12T00:28:19.707Z,100.00
2023-02-12T00:30:46.463Z,100.00
2023-02-12T00:33:13.005Z,100.00
2023-02-12T00:35:39.400Z,100.00
2023-02-12T00:38:05.813Z,100.00
2023-02-12T00:40:32.222Z,100.00
2023-02-12T00:42:58.672Z,100.00
2023-02-12T00:45:25.095Z,100.00
2023-02-12T00:47:51.507Z,100.00
2023-02-12T00:50:17.946Z,100.00
2023-02-12T00:52:44.336Z,100.00
2023-02-12T00:55:10.730Z,100.00
2023-02-12T00:57:37.163Z,100.00
2023-02-12T01:00:04.946Z,100.00
2023-02-12T01:02:31.341Z,100.00
2023-02-12T01:04:58.488Z,100.00
2023-02-12T01:07:25.164Z,100.00
2023-02-12T01:09:51.581Z,100.00
2023-02-12T01:12:17.997Z,100.00
2023-02-12T01:14:44.385Z,100.00
2023-02-12T01:17:10.796Z,100.00
2023-02-12T01:19:37.187Z,100.00
2023-02-12T01:22:03.756Z,100.00
2023-02-12T01:24:30.508Z,100.00
2023-02-12T01:26:58.267Z,100.00
2023-02-12T01:29:24.652Z,100.00
2023-02-12T01:31:51.197Z,100.00
2023-02-12T01:34:17.818Z,100.00
2023-02-12T01:36:44.497Z,100.00
2023-02-12T01:39:12.044Z,100.00
2023-02-12T01:41:44.163Z,100.00
2023-02-12T01:44:15.390Z,100.00
2023-02-12T01:46:43.490Z,100.00
2023-02-12T01:49:16.082Z,100.00
2023-02-12T01:51:45.705Z,100.00
2023-02-12T01:54:14.861Z,100.00
2023-02-12T01:56:42.230Z,100.00
2023-02-12T01:59:08.994Z,100.00
2023-02-12T02:01:35.750Z,100.00
2023-02-12T02:04:13.798Z,100.00
2023-02-12T02:06:50.376Z,100.00
2023-02-12T02:09:19.218Z,100.00
2023-02-12T02:12:04.939Z,100.00
2023-02-12T02:14:34.416Z,100.00
2023-02-12T02:17:30.715Z,100.00
2023-02-12T02:20:25.743Z,100.00
2023-02-12T02:23:29.163Z,100.00
2023-02-12T02:26:27.936Z,100.00
2023-02-12T02:29:17.884Z,100.00
2023-02-12T02:31:54.988Z,100.00
2023-02-12T02:34:34.287Z,100.00
2023-02-12T02:37:12.535Z,100.00
2023-02-12T02:40:16.969Z,100.00
2023-02-12T02:43:04.694Z,100.00
2023-02-12T02:45:43.267Z,100.00
2023-02-12T02:48:18.552Z,100.00
2023-02-12T02:50:51.206Z,100.00
2023-02-12T02:53:23.479Z,100.00
2023-02-12T02:55:54.330Z,100.00
2023-02-12T02:58:26.704Z,100.00
2023-02-12T03:01:06.028Z,100.00
2023-02-12T03:03:37.613Z,100.00
2023-02-12T03:06:22.734Z,100.00
2023-02-12T03:09:00.086Z,100.00
2023-02-12T03:11:33.461Z,100.00
2023-02-12T03:14:09.985Z,100.00
2023-02-12T03:16:52.996Z,100.00
2023-02-12T03:19:23.419Z,100.00
2023-02-12T03:22:00.481Z,100.00
2023-02-12T03:24:36.169Z,100.00
2023-02-12T03:27:09.043Z,100.00
2023-02-12T03:29:35.837Z,100.00
2023-02-12T03:32:06.650Z,100.00
2023-02-12T03:34:47.948Z,100.00
2023-02-12T03:37:35.183Z,100.00
2023-02-12T03:40:21.218Z,100.00
2023-02-12T03:43:04.726Z,100.00
2023-02-12T03:45:52.204Z,100.00
2023-02-12T03:48:27.924Z,100.00
2023-02-12T03:51:01.622Z,100.00
2023-02-12T03:53:29.368Z,100.00
2023-02-12T03:56:08.704Z,100.00
2023-02-12T03:58:37.104Z,100.00
2023-02-12T04:01:04.002Z,100.00
2023-02-12T04:03:31.497Z,100.00
2023-02-12T04:05:58.060Z,100.00
2023-02-12T04:08:27.004Z,100.00
2023-02-12T04:11:10.682Z,100.00
2023-02-12T04:13:42.464Z,100.00
2023-02-12T04:16:33.190Z,100.00
2023-02-12T04:19:00.135Z,100.00
2023-02-12T04:21:40.405Z,100.00
2023-02-12T04:24:29.908Z,100.00
2023-02-12T04:27:12.070Z,100.00
2023-02-12T04:30:04.165Z,100.00
2023-02-12T04:32:42.971Z,100.00
2023-02-12T04:35:21.870Z,100.00
2023-02-12T04:37:54.764Z,100.00
2023-02-12T04:40:22.210Z,100.00
2023-02-12T04:42:51.029Z,100.00
2023-02-12T04:45:33.101Z,100.00
2023-02-12T04:47:59.950Z,100.00
2023-02-12T04:50:26.815Z,100.00
2023-02-12T04:52:53.231Z,100.00
2023-02-12T04:55:19.650Z,100.00
2023-02-12T04:57:46.068Z,100.00
2023-02-12T05:00:15.016Z,100.00
2023-02-12T05:02:41.404Z,100.00
2023-02-12T05:05:08.114Z,100.00
2023-02-12T05:07:34.553Z,100.00
2023-02-12T05:10:01.032Z,100.00
2023-02-12T05:12:27.444Z,100.00
2023-02-12T05:14:53.824Z,100.00
2023-02-12T05:17:22.856Z,100.00
2023-02-12T05:19:49.277Z,100.00
2023-02-12T05:22:15.688Z,100.00
2023-02-12T05:24:42.202Z,100.00
2023-02-12T05:27:09.159Z,100.00
2023-02-12T05:29:36.237Z,100.00
2023-02-12T05:32:02.852Z,100.00
2023-02-12T05:34:29.725Z,100.00
2023-02-12T05:36:56.279Z,100.00
2023-02-12T05:39:22.734Z,100.00
2023-02-12T05:41:49.146Z,100.00
2023-02-12T05:44:15.720Z,100.00
2023-02-12T05:46:42.563Z,100.00
2023-02-12T05:49:10.059Z,100.00
2023-02-12T05:51:37.630Z,100.00
2023-02-12T05:54:05.563Z,100.00
2023-02-12T05:56:38.029Z,100.00
2023-02-12T05:59:07.609Z,100.00
2023-02-12T06:01:40.044Z,100.00
2023-02-12T06:04:16.383Z,100.00
2023-02-12T06:06:42.896Z,100.00
2023-02-12T06:09:11.135Z,100.00
2023-02-12T06:11:37.760Z,100.00
2023-02-12T06:14:05.833Z,100.00
2023-02-12T06:16:33.861Z,100.00
2023-02-12T06:19:02.728Z,100.00
2023-02-12T06:21:29.522Z,100.00
2023-02-12T06:23:56.029Z,100.00
2023-02-12T06:26:23.157Z,100.00
2023-02-12T06:28:50.129Z,100.00
2023-02-12T06:31:26.475Z,100.00
2023-02-12T06:33:55.087Z,100.00
2023-02-12T06:36:21.738Z,100.00
2023-02-12T06:38:48.695Z,100.00
2023-02-12T06:41:15.563Z,100.00
2023-02-12T06:43:42.320Z,100.00
2023-02-12T06:46:10.866Z,100.00
2023-02-12T06:48:37.822Z,100.00
2023-02-12T06:51:06.396Z,100.00
2023-02-12T06:53:33.732Z,100.00
2023-02-12T06:56:04.453Z,100.00
2023-02-12T06:58:30.883Z,100.00
2023-02-12T07:00:57.333Z,100.00
2023-02-12T07:03:23.798Z,100.00
2023-02-12T07:05:50.216Z,100.00
2023-02-12T07:08:16.595Z,100.00
2023-02-12T07:10:42.976Z,100.00
2023-02-12T07:13:09.390Z,100.00
2023-02-12T07:15:38.986Z,100.00
2023-02-12T07:18:05.411Z,100.00
2023-02-12T07:20:31.855Z,100.00
2023-02-12T07:22:58.246Z,100.00
2023-02-12T07:25:24.675Z,100.00
2023-02-12T07:27:51.078Z,100.00
2023-02-12T07:30:17.661Z,100.00
2023-02-12T07:32:44.047Z,100.00
2023-02-12T07:35:10.485Z,100.00
2023-02-12T07:37:36.927Z,100.00
2023-02-12T07:40:03.559Z,100.00
2023-02-12T07:42:30.256Z,100.00
2023-02-12T07:44:59.206Z,100.00
2023-02-12T07:47:25.686Z,100.00
2023-02-12T07:49:52.473Z,100.00
2023-02-12T07:52:18.878Z,100.00
2023-02-12T07:54:45.258Z,100.00
2023-02-12T07:57:11.640Z,100.00
2023-02-12T07:59:38.085Z,100.00
2023-02-12T08:02:04.505Z,100.00
2023-02-12T08:04:31.020Z,100.00
2023-02-12T08:06:57.587Z,100.00
2023-02-12T08:09:27.688Z,100.00
2023-02-12T08:11:54.298Z,100.00
2023-02-12T08:14:21.997Z,100.00
2023-02-12T08:16:50.373Z,100.00
2023-02-12T08:19:21.201Z,100.00
2023-02-12T08:21:51.286Z,100.00
2023-02-12T08:24:17.863Z,100.00
2023-02-12T08:26:45.038Z,100.00
2023-02-12T08:29:14.346Z,100.00
2023-02-12T08:31:44.117Z,100.00
2023-02-12T08:34:18.646Z,100.00
2023-02-12T08:36:45.433Z,100.00
2023-02-12T08:39:12.649Z,100.00
2023-02-12T08:41:39.068Z,100.00
2023-02-12T08:44:05.690Z,100.00
2023-02-12T08:46:34.775Z,100.00
2023-02-12T08:49:04.605Z,100.00
2023-02-12T08:51:34.440Z,100.00
2023-02-12T08:54:03.142Z,100.00
2023-02-12T08:56:31.720Z,100.00
2023-02-12T08:58:59.467Z,100.00
2023-02-12T09:01:27.796Z,100.00
2023-02-12T09:03:54.860Z,100.00
2023-02-12T09:06:23.724Z,100.00
2023-02-12T09:08:50.741Z,100.00
2023-02-12T09:11:20.008Z,100.00
2023-02-12T09:13:47.364Z,100.00
2023-02-12T09:16:14.201Z,100.00
2023-02-12T09:18:40.658Z,100.00
2023-02-12T09:21:11.095Z,100.00
2023-02-12T09:23:38.212Z,100.00
2023-02-12T09:26:10.147Z,100.00
2023-02-12T09:28:37.831Z,100.00
2023-02-12T09:31:09.311Z,100.00
2023-02-12T09:33:36.195Z,100.00
2023-02-12T09:36:11.651Z,100.00
2023-02-12T09:38:38.671Z,100.00
2023-02-12T09:41:43.921Z,100.00
2023-02-12T09:44:40.496Z,100.00
2023-02-12T09:47:14.151Z,100.00
2023-02-12T09:50:23.436Z,100.00
2023-02-12T09:52:50.571Z,100.00
2023-02-12T09:55:19.468Z,100.00
2023-02-12T09:57:46.549Z,100.00
2023-02-12T10:00:23.847Z,100.00
2023-02-12T10:02:52.824Z,100.00
2023-02-12T10:05:32.169Z,100.00
2023-02-12T10:08:15.223Z,100.00
2023-02-12T10:11:06.022Z,100.00
2023-02-12T10:13:51.909Z,100.00
2023-02-12T10:16:47.626Z,100.00
2023-02-12T10:19:49.378Z,100.00
2023-02-12T10:22:32.864Z,100.00
2023-02-12T10:25:20.590Z,100.00
2023-02-12T10:27:50.884Z,100.00
2023-02-12T10:30:22.846Z,100.00
2023-02-12T10:32:54.627Z,100.00
2023-02-12T10:35:23.145Z,100.00
2023-02-12T10:38:01.934Z,100.00
2023-02-12T10:40:32.693Z,100.00
2023-02-12T10:43:00.762Z,100.00
2023-02-12T10:45:32.094Z,100.00
2023-02-12T10:48:13.700Z,100.00
2023-02-12T10:51:05.776Z,100.00
2023-02-12T10:53:38.668Z,100.00
2023-02-12T10:56:12.150Z,100.00
2023-02-12T10:58:50.581Z,100.00
2023-02-12T11:01:16.963Z,100.00
2023-02-12T11:03:43.359Z,100.00
2023-02-12T11:06:18.066Z,100.00
2023-02-12T11:08:45.278Z,100.00
2023-02-12T11:11:18.606Z,100.00
2023-02-12T11:13:53.888Z,100.00
2023-02-12T11:16:32.832Z,100.00
2023-02-12T11:19:02.066Z,100.00
2023-02-12T11:21:28.640Z,100.00
2023-02-12T11:23:55.061Z,100.00
2023-02-12T11:26:21.395Z,100.00
2023-02-12T11:28:53.628Z,100.00
2023-02-12T11:31:31.923Z,100.00
2023-02-12T11:34:16.588Z,100.00
2023-02-12T11:36:46.883Z,100.00
2023-02-12T11:39:21.439Z,100.00
2023-02-12T11:41:52.597Z,100.00
2023-02-12T11:44:24.369Z,100.00
2023-02-12T11:46:56.313Z,100.00
2023-02-12T11:49:27.414Z,100.00
2023-02-12T11:51:54.507Z,100.00
2023-02-12T11:54:28.452Z,100.00
2023-02-12T11:56:57.775Z,100.00
2023-02-12T11:59:36.807Z,100.00
2023-02-12T12:02:12.051Z,100.00
2023-02-12T12:04:40.801Z,100.00
2023-02-12T12:07:26.114Z,100.00
2023-02-12T12:10:05.820Z,100.00
2023-02-12T12:12:53.768Z,100.00
2023-02-12T12:15:47.655Z,100.00
2023-02-12T12:18:45.148Z,100.00
2023-02-12T12:21:37.949Z,100.00
2023-02-12T12:24:08.704Z,100.00
2023-02-12T12:26:35.215Z,100.00
2023-02-12T12:29:12.714Z,100.00
2023-02-12T12:31:42.875Z,100.00
2023-02-12T12:34:19.319Z,100.00
2023-02-12T12:37:12.529Z,100.00
2023-02-12T12:39:57.854Z,100.00
2023-02-12T12:42:48.464Z,100.00
2023-02-12T12:45:54.263Z,100.00
2023-02-12T12:48:33.104Z,100.00
2023-02-12T12:51:08.658Z,100.00
2023-02-12T12:54:12.736Z,100.00
2023-02-12T12:56:58.461Z,100.00
2023-02-12T12:59:48.443Z,100.00
2023-02-12T13:02:39.219Z,100.00
2023-02-12T13:05:21.131Z,100.00
2023-02-12T13:08:24.941Z,100.00
2023-02-12T13:10:57.806Z,100.00
2023-02-12T13:13:35.582Z,100.00
2023-02-12T13:16:18.115Z,100.00
2023-02-12T13:19:06.337Z,100.00
2023-02-12T13:22:10.068Z,100.00
2023-02-12T13:24:45.133Z,100.00
2023-02-12T13:27:22.658Z,100.00
2023-02-12T13:30:04.861Z,100.00
2023-02-12T13:32:37.596Z,100.00
2023-02-12T13:35:07.172Z,100.00
2023-02-12T13:37:38.664Z,100.00
2023-02-12T13:40:08.543Z,100.00
2023-02-12T13:42:50.146Z,100.00
2023-02-12T13:45:50.434Z,100.00
2023-02-12T13:48:25.683Z,100.00
2023-02-12T13:51:04.749Z,100.00
2023-02-12T13:53:47.529Z,100.00
2023-02-12T13:56:40.261Z,100.00
2023-02-12T13:59:35.695Z,100.00
2023-02-12T14:02:34.610Z,100.00
2023-02-12T14:05:05.224Z,99.41
2023-02-12T14:07:46.785Z,100.00
2023-02-12T14:10:26.498Z,99.42
2023-02-12T14:12:56.272Z,100.00
2023-02-12T14:15:29.570Z,99.24
2023-02-12T14:18:14.979Z,99.10
2023-02-12T14:20:41.818Z,99.47
2023-02-12T14:23:27.520Z,98.22
2023-02-12T14:26:00.659Z,98.28
2023-02-12T14:28:34.340Z,99.20
2023-02-12T14:31:27.074Z,97.75
2023-02-12T14:34:16.599Z,97.27
2023-02-12T14:36:49.046Z,98.67
2023-02-12T14:39:27.833Z,99.39
2023-02-12T14:42:10.272Z,98.80
2023-02-12T14:44:37.790Z,99.75
2023-02-12T14:47:14.225Z,98.53
2023-02-12T14:49:55.604Z,98.08
2023-02-12T14:52:27.390Z,98.81
2023-02-12T14:54:59.048Z,99.83
2023-02-12T14:57:34.628Z,99.91
2023-02-12T15:00:16.378Z,99.06
2023-02-12T15:02:48.364Z,99.05
2023-02-12T15:05:29.476Z,99.13
2023-02-12T15:07:58.390Z,99.92
2023-02-12T15:10:29.995Z,99.36
2023-02-12T15:13:16.701Z,99.07
2023-02-12T15:15:49.951Z,99.47
2023-02-12T15:18:19.025Z,98.05
2023-02-12T15:20:56.113Z,98.96
2023-02-12T15:23:42.854Z,99.05
2023-02-12T15:26:15.983Z,99.69
2023-02-12T15:28:45.995Z,99.07
2023-02-12T15:31:16.787Z,99.16
2023-02-12T15:33:49.852Z,97.81
2023-02-12T15:36:20.282Z,98.55
2023-02-12T15:38:53.041Z,97.95
2023-02-12T15:41:36.130Z,96.85
2023-02-12T15:44:19.260Z,97.73
2023-02-12T15:46:59.094Z,97.65
2023-02-12T15:49:32.097Z,97.02
2023-02-12T15:52:00.911Z,97.28
2023-02-12T15:54:43.567Z,96.63
2023-02-12T15:57:19.607Z,96.72
2023-02-12T15:59:51.463Z,97.27
2023-02-12T16:02:27.369Z,96.66
2023-02-12T16:04:55.020Z,95.89
2023-02-12T16:07:23.074Z,96.85
2023-02-12T16:09:57.116Z,96.45
2023-02-12T16:12:28.788Z,96.53
2023-02-12T16:14:59.088Z,96.35
2023-02-12T16:17:25.450Z,96.67
2023-02-12T16:19:59.179Z,96.24
2023-02-12T16:22:43.132Z,96.12
2023-02-12T16:25:24.287Z,97.89
2023-02-12T16:27:54.488Z,98.41
2023-02-12T16:30:38.721Z,99.14
2023-02-12T16:33:25.725Z,99.62
2023-02-12T16:36:24.155Z,99.55
2023-02-12T16:38:55.538Z,100.00
2023-02-12T16:41:53.015Z,99.67
2023-02-12T16:44:26.763Z,100.00
2023-02-12T16:46:56.850Z,100.00
2023-02-12T16:49:25.516Z,100.00
2023-02-12T16:51:53.008Z,100.00
2023-02-12T16:54:28.539Z,100.00
2023-02-12T16:56:55.222Z,100.00
2023-02-12T16:59:21.657Z,100.00
2023-02-12T17:02:03.947Z,100.00
2023-02-12T17:04:31.058Z,100.00
2023-02-12T17:06:58.071Z,100.00
2023-02-12T17:09:24.576Z,100.00
2023-02-12T17:11:50.987Z,100.00
2023-02-12T17:14:19.332Z,100.00
2023-02-12T17:16:45.920Z,100.00
2023-02-12T17:19:12.461Z,100.00
2023-02-12T17:21:42.100Z,100.00
2023-02-12T17:24:19.438Z,100.00
2023-02-12T17:26:45.869Z,100.00
2023-02-12T17:29:12.430Z,100.00
2023-02-12T17:31:39.060Z,100.00
2023-02-12T17:34:05.811Z,100.00
2023-02-12T17:36:32.583Z,100.00
2023-02-12T17:38:59.249Z,100.00
2023-02-12T17:41:25.649Z,100.00
2023-02-12T17:43:52.109Z,100.00
2023-02-12T17:46:21.455Z,100.00
2023-02-12T17:48:47.845Z,100.00
2023-02-12T17:51:14.493Z,100.00
2023-02-12T17:53:41.369Z,100.00
2023-02-12T17:56:19.916Z,100.00
2023-02-12T17:58:47.478Z,100.00
2023-02-12T18:01:16.758Z,100.00
2023-02-12T18:03:43.293Z,100.00
2023-02-12T18:06:13.898Z,100.00
2023-02-12T18:08:41.528Z,100.00
2023-02-12T18:11:10.190Z,100.00
2023-02-12T18:13:37.874Z,100.00
2023-02-12T18:16:08.693Z,100.00
2023-02-12T18:18:35.798Z,100.00
2023-02-12T18:21:07.116Z,100.00
2023-02-12T18:23:33.931Z,100.00
2023-02-12T18:26:00.367Z,100.00
2023-02-12T18:28:26.934Z,100.00
2023-02-12T18:30:57.930Z,100.00
2023-02-12T18:33:24.969Z,100.00
2023-02-12T18:35:59.448Z,100.00
2023-02-12T18:38:26.335Z,100.00
2023-02-12T18:40:52.813Z,100.00
2023-02-12T18:43:19.244Z,100.00
2023-02-12T18:45:47.027Z,100.00
2023-02-12T18:48:13.479Z,100.00
2023-02-12T18:50:39.950Z,100.00
2023-02-12T18:53:06.386Z,100.00
2023-02-12T18:55:32.829Z,100.00
2023-02-12T18:57:59.263Z,100.00
2023-02-12T19:00:25.701Z,100.00
2023-02-12T19:02:52.145Z,100.00
2023-02-12T19:05:18.678Z,100.00
2023-02-12T19:07:45.127Z,100.00
2023-02-12T19:10:11.632Z,100.00
2023-02-12T19:12:38.115Z,100.00
2023-02-12T19:15:05.168Z,100.00
2023-02-12T19:17:31.611Z,100.00
2023-02-12T19:19:58.040Z,100.00
2023-02-12T19:22:24.517Z,100.00
2023-02-12T19:24:51.662Z,100.00
2023-02-12T19:27:18.106Z,100.00
2023-02-12T19:29:44.642Z,100.00
2023-02-12T19:32:11.132Z,100.00
2023-02-12T19:34:37.918Z,100.00
2023-02-12T19:37:04.346Z,100.00
2023-02-12T19:39:30.759Z,100.00
2023-02-12T19:41:57.196Z,100.00
2023-02-12T19:44:25.240Z,100.00
2023-02-12T19:46:52.371Z,100.00
2023-02-12T19:49:22.497Z,100.00
2023-02-12T19:51:49.565Z,100.00
2023-02-12T19:54:17.665Z,100.00
2023-02-12T19:56:44.723Z,100.00
2023-02-12T19:59:19.618Z,100.00
2023-02-12T20:01:48.256Z,100.00
2023-02-12T20:04:17.942Z,100.00
2023-02-12T20:06:48.987Z,100.00
2023-02-12T20:09:15.295Z,100.00
2023-02-12T20:11:41.721Z,100.00
2023-02-12T20:14:11.352Z,100.00
2023-02-12T20:16:39.096Z,100.00
2023-02-12T20:19:08.917Z,100.00
2023-02-12T20:21:35.365Z,100.00
2023-02-12T20:24:01.845Z,100.00
2023-02-12T20:26:30.820Z,100.00
2023-02-12T20:28:58.613Z,100.00
2023-02-12T20:31:28.519Z,100.00
2023-02-12T20:33:57.375Z,100.00
2023-02-12T20:36:25.250Z,100.00
2023-02-12T20:38:55.836Z,100.00
2023-02-12T20:41:23.270Z,100.00
2023-02-12T20:43:50.249Z,100.00
2023-02-12T20:46:19.321Z,100.00
2023-02-12T20:48:46.525Z,100.00
2023-02-12T20:51:19.159Z,100.00
2023-02-12T20:53:46.697Z,100.00
2023-02-12T20:56:16.124Z,100.00
2023-02-12T20:58:46.550Z,100.00
2023-02-12T21:01:18.967Z,100.00
2023-02-12T21:03:45.448Z,100.00
2023-02-12T21:06:12.128Z,100.00
2023-02-12T21:08:39.748Z,100.00
2023-02-12T21:11:14.507Z,100.00
2023-02-12T21:13:50.377Z,100.00
2023-02-12T21:16:34.914Z,100.00
2023-02-12T21:19:01.586Z,100.00
2023-02-12T21:21:33.210Z,100.00
2023-02-12T21:24:00.891Z,100.00
2023-02-12T21:26:29.254Z,100.00
2023-02-12T21:28:57.635Z,100.00
2023-02-12T21:31:27.135Z,100.00
2023-02-12T21:33:54.973Z,100.00
2023-02-12T21:36:36.758Z,100.00
2023-02-12T21:39:05.407Z,100.00
2023-02-12T21:41:35.540Z,100.00
2023-02-12T21:44:13.976Z,100.00
2023-02-12T21:46:41.181Z,100.00
2023-02-12T21:49:08.181Z,100.00
2023-02-12T21:51:42.903Z,100.00
2023-02-12T21:54:11.877Z,100.00
2023-02-12T21:56:43.485Z,100.00
2023-02-12T21:59:10.430Z,100.00
2023-02-12T22:01:41.106Z,100.00
2023-02-12T22:04:07.859Z,100.00
2023-02-12T22:06:44.193Z,100.00
2023-02-12T22:09:11.941Z,100.00
2023-02-12T22:11:40.205Z,100.00
2023-02-12T22:14:08.190Z,100.00
2023-02-12T22:16:36.303Z,100.00
2023-02-12T22:19:03.901Z,100.00
2023-02-12T22:21:33.543Z,100.00
2023-02-12T22:24:02.212Z,100.00
2023-02-12T22:26:30.061Z,100.00
2023-02-12T22:28:58.951Z,100.00
2023-02-12T22:31:31.288Z,100.00
2023-02-12T22:34:04.234Z,100.00
2023-02-12T22:36:31.565Z,100.00
2023-02-12T22:39:00.052Z,100.00
2023-02-12T22:41:27.921Z,100.00
2023-02-12T22:43:54.837Z,100.00
2023-02-12T22:46:21.428Z,100.00
2023-02-12T22:48:47.865Z,100.00
2023-02-12T22:51:19.600Z,100.00
2023-02-12T22:53:46.486Z,100.00
2023-02-12T22:56:13.126Z,100.00
2023-02-12T22:58:39.728Z,100.00
2023-02-12T23:01:08.414Z,100.00
2023-02-12T23:03:37.341Z,100.00
2023-02-12T23:06:05.939Z,100.00
2023-02-12T23:08:32.589Z,100.00
2023-02-12T23:10:59.574Z,100.00
2023-02-12T23:13:29.978Z,100.00
2023-02-12T23:15:57.872Z,100.00
2023-02-12T23:18:25.491Z,100.00
2023-02-12T23:20:52.710Z,100.00
2023-02-12T23:23:20.514Z,100.00
2023-02-12T23:25:47.659Z,100.00
2023-02-12T23:28:14.526Z,100.00
2023-02-12T23:30:41.040Z,100.00
2023-02-12T23:33:07.534Z,100.00
2023-02-12T23:35:33.948Z,100.00
2023-02-12T23:38:00.358Z,100.00
2023-02-12T23:40:27.010Z,100.00
2023-02-12T23:42:53.421Z,100.00
2023-02-12T23:45:19.815Z,100.00
2023-02-12T23:47:46.218Z,100.00
2023-02-12T23:50:12.611Z,100.00
2023-02-12T23:52:39.108Z,100.00
2023-02-12T23:55:05.884Z,100.00
2023-02-12T23:57:32.277Z,100.00
2023-02-12T23:59:58.665Z,100.00
